Time;durP1;ratioP1;P1;durP2;ratioP2;P2;SDS_P1;SDS_P2;PMS_P1;PMS_P2;Temp;Humidity;BMP_temperature;BMP_pressure;BME280_temperature;BME280_humidity;BME280_pressure;Samples;Min_cycle;Max_cycle;Signal;HPM_P1;HPM_P2
2023/09/16 00:00:25;;;;;;;7.07;5.83;;;;;;;12.01;100.00;97906.00;6200480;28;20223;-88
2023/09/16 00:03:27;;;;;;;7.37;6.30;;;;;;;11.19;100.00;97759.88;6220962;28;20701;-88
2023/09/16 00:06:30;;;;;;;7.90;6.33;;;;;;;12.15;100.00;97933.16;6210234;28;20236;-88
2023/09/16 00:09:33;;;;;;;6.10;5.57;;;;;;;12.11;100.00;97903.47;6238606;28;20235;-89
2023/09/16 00:12:35;;;;;;;6.00;5.40;;;;;;;12.35;100.00;97959.34;6234146;28;20302;-89
2023/09/16 00:15:38;;;;;;;8.23;5.87;;;;;;;12.00;100.00;97876.88;6244510;28;20223;-90
2023/09/16 00:18:40;;;;;;;6.00;5.50;;;;;;;12.12;100.00;97923.81;6227520;28;20231;-89
2023/09/16 00:21:43;;;;;;;6.00;5.47;;;;;;;11.25;100.00;97790.09;6246787;28;20222;-89
2023/09/16 00:24:45;;;;;;;8.27;6.10;;;;;;;11.42;100.00;97796.22;6236079;28;20700;-88
2023/09/16 00:27:48;;;;;;;7.23;5.90;;;;;;;11.44;100.00;97810.13;6228459;28;20234;-89
2023/09/16 00:30:51;;;;;;;6.90;5.87;;;;;;;11.16;100.00;97751.56;6220143;28;20227;-89
2023/09/16 00:33:53;;;;;;;7.93;5.37;;;;;;;12.12;100.00;97896.28;6225792;28;20238;-89
2023/09/16 00:36:56;;;;;;;7.37;6.27;;;;;;;11.39;100.00;97774.56;6226192;28;20693;-89
2023/09/16 00:39:58;;;;;;;6.77;6.00;;;;;;;12.58;100.00;97969.84;6241797;28;20245;-89
2023/09/16 00:43:00;;;;;;;6.27;5.70;;;;;;;12.27;100.00;97911.72;6207461;28;20227;-89
2023/09/16 00:46:02;;;;;;;7.10;5.93;;;;;;;12.49;100.00;97944.59;6244349;28;20705;-89
2023/09/16 00:49:05;;;;;;;6.87;5.97;;;;;;;12.35;100.00;97922.75;6224685;28;20604;-89
2023/09/16 00:52:09;;;;;;;6.43;5.80;;;;;;;12.51;100.00;97937.16;6223798;28;20240;-89
2023/09/16 00:55:12;;;;;;;8.43;6.50;;;;;;;12.87;100.00;97983.84;6222731;28;20227;-90
2023/09/16 00:58:17;;;;;;;6.80;6.20;;;;;;;11.70;100.00;97805.97;6238646;28;20361;-89
2023/09/16 01:01:19;;;;;;;6.40;5.83;;;;;;;12.85;100.00;97969.09;6211234;28;20727;-89
2023/09/16 01:04:23;;;;;;;6.30;5.70;;;;;;;12.92;100.00;97985.75;6222706;28;20252;-90
2023/09/16 01:07:27;;;;;;;6.43;5.80;;;;;;;12.23;100.00;97873.19;6241703;28;20234;-90
2023/09/16 01:10:29;;;;;;;7.27;5.97;;;;;;;12.06;100.00;97830.50;6213332;28;20227;-90
2023/09/16 01:13:33;;;;;;;7.70;5.53;;;;;;;12.17;100.00;97844.78;6229319;28;20232;-90
2023/09/16 01:16:43;;;;;;;7.97;5.60;;;;;;;12.99;100.00;97993.59;6228489;28;20277;-89
2023/09/16 01:20:15;;;;;;;7.27;5.80;;;;;;;12.99;100.00;97982.91;6246851;28;20239;-88
2023/09/16 01:23:18;;;;;;;6.80;6.10;;;;;;;11.30;100.00;97726.97;6090703;28;20230;-88
2023/09/16 01:26:20;;;;;;;6.40;5.70;;;;;;;12.96;100.00;97994.91;6116145;28;20293;-88
2023/09/16 01:29:23;;;;;;;6.30;5.77;;;;;;;12.01;100.00;97857.13;6097453;29;20635;-88
2023/09/16 01:32:30;;;;;;;6.20;5.20;;;;;;;12.47;100.00;97903.16;6089043;28;20260;-89
2023/09/16 01:35:37;;;;;;;10.17;5.57;;;;;;;11.80;100.00;97807.97;6114907;28;20235;-87
2023/09/16 01:38:43;;;;;;;7.00;5.47;;;;;;;12.75;100.00;97947.56;6101994;28;20537;-87
2023/09/16 01:41:46;;;;;;;6.30;5.37;;;;;;;12.13;100.00;97852.50;6127391;28;20303;-89
2023/09/16 01:44:53;;;;;;;5.67;5.17;;;;;;;11.81;100.00;97814.91;6141779;28;20222;-88
2023/09/16 01:47:56;;;;;;;6.00;5.40;;;;;;;12.56;100.00;97944.41;6127912;28;20222;-90
2023/09/16 01:50:58;;;;;;;6.27;5.13;;;;;;;12.08;100.00;97863.91;6151690;28;20246;-90
2023/09/16 01:54:00;;;;;;;6.37;5.40;;;;;;;12.01;100.00;97855.25;6145936;28;20219;-89
2023/09/16 01:57:02;;;;;;;5.70;5.20;;;;;;;12.15;100.00;97879.75;6120089;28;20223;-88
2023/09/16 02:00:05;;;;;;;6.47;5.73;;;;;;;12.74;100.00;97968.16;6221543;28;20212;-89
2023/09/16 02:03:13;;;;;;;5.43;4.93;;;;;;;11.55;100.00;97814.56;6227281;28;20311;-88
2023/09/16 02:06:17;;;;;;;10.07;4.90;;;;;;;11.74;100.00;97844.47;6213718;28;20231;-88
2023/09/16 02:09:22;;;;;;;6.10;4.87;;;;;;;11.09;100.00;97757.06;6229800;28;20544;-88
2023/09/16 02:12:24;;;;;;;5.13;4.63;;;;;;;12.63;100.00;97988.59;6246333;28;20254;-88
2023/09/16 02:15:27;;;;;;;8.57;5.87;;;;;;;11.95;100.00;97896.31;6227532;28;20224;-88
2023/09/16 02:18:30;;;;;;;5.27;4.77;;;;;;;11.01;100.00;97782.25;6228651;28;20689;-88
2023/09/16 02:21:32;;;;;;;6.23;5.37;;;;;;;11.62;100.00;97857.06;6220958;28;20235;-88
2023/09/16 02:24:34;;;;;;;6.53;4.60;;;;;;;12.53;100.00;97988.47;6227870;28;20231;-88
2023/09/16 02:27:37;;;;;;;5.87;4.70;;;;;;;11.55;100.00;97854.56;6228791;28;20219;-88
2023/09/16 02:30:39;;;;;;;6.53;5.23;;;;;;;11.82;100.00;97880.63;6245187;28;20262;-88
2023/09/16 02:33:41;;;;;;;6.80;5.60;;;;;;;12.01;100.00;97923.88;6233548;28;20376;-88
2023/09/16 02:36:44;;;;;;;7.53;5.10;;;;;;;11.61;100.00;97874.13;6228420;28;20236;-88
2023/09/16 02:39:47;;;;;;;5.77;5.27;;;;;;;12.37;100.00;97989.31;6226203;28;20227;-89
2023/09/16 02:42:49;;;;;;;6.10;5.27;;;;;;;11.38;100.00;97853.78;6222771;28;20318;-88
2023/09/16 02:45:55;;;;;;;5.13;4.63;;;;;;;10.94;100.00;97767.47;6221287;28;20234;-88
2023/09/16 02:48:58;;;;;;;8.57;4.80;;;;;;;11.44;100.00;97855.47;6221065;28;20285;-88
2023/09/16 02:52:00;;;;;;;6.50;5.90;;;;;;;12.31;100.00;97985.75;6223050;28;20364;-88
2023/09/16 02:55:02;;;;;;;6.13;5.23;;;;;;;11.37;100.00;97849.47;6242197;28;20227;-89
2023/09/16 02:58:05;;;;;;;8.43;4.93;;;;;;;10.76;100.00;97763.19;6214728;28;20235;-88
2023/09/16 03:01:11;;;;;;;6.80;6.10;;;;;;;11.40;100.00;97864.22;6238549;28;20227;-88
2023/09/16 03:04:16;;;;;;;5.83;5.33;;;;;;;10.77;100.00;97772.78;6225807;28;20231;-88
2023/09/16 03:07:21;;;;;;;6.10;5.60;;;;;;;10.67;100.00;97772.59;6240444;28;20325;-88
2023/09/16 03:10:23;;;;;;;5.37;4.87;;;;;;;11.72;100.00;97931.16;6198554;28;20236;-89
2023/09/16 03:13:26;;;;;;;5.63;5.13;;;;;;;11.23;100.00;97856.19;6223677;28;20235;-89
2023/09/16 03:16:31;;;;;;;8.03;5.57;;;;;;;12.11;100.00;97993.47;6207008;28;20266;-89
2023/09/16 03:19:34;;;;;;;7.93;5.70;;;;;;;11.08;100.00;97828.25;6238189;28;20231;-89
2023/09/16 03:22:36;;;;;;;6.63;5.30;;;;;;;12.06;100.00;97988.03;6209670;28;20235;-87
2023/09/16 03:25:38;;;;;;;7.07;5.57;;;;;;;11.38;100.00;97893.81;6221691;28;20274;-89
2023/09/16 03:28:47;;;;;;;5.80;5.20;;;;;;;11.99;100.00;97980.19;6199472;28;20325;-87
2023/09/16 03:31:55;;;;;;;6.37;5.77;;;;;;;11.97;100.00;97986.81;6194517;28;20227;-88
2023/09/16 03:34:57;;;;;;;5.97;5.37;;;;;;;11.78;100.00;97944.34;6207377;28;20228;-88
2023/09/16 03:38:00;;;;;;;8.43;5.73;;;;;;;11.24;100.00;97866.63;6206897;28;20254;-90
2023/09/16 03:41:02;;;;;;;7.27;5.90;;;;;;;11.06;100.00;97872.97;6240268;28;20237;-89
2023/09/16 03:44:06;;;;;;;6.80;6.17;;;;;;;10.79;100.00;97806.16;6206164;28;20227;-88
2023/09/16 03:47:09;;;;;;;7.33;6.57;;;;;;;11.10;100.00;97846.66;6248866;28;20262;-91
2023/09/16 03:50:14;;;;;;;6.77;6.10;;;;;;;11.23;100.00;97873.03;6226858;28;20235;-91
2023/09/16 03:53:18;;;;;;;6.97;5.87;;;;;;;11.47;100.00;97915.53;6245632;28;20720;-90
2023/09/16 03:56:34;;;;;;;6.60;5.90;;;;;;;10.20;100.00;97714.22;6215623;28;20234;-90
2023/09/16 03:59:36;;;;;;;7.07;5.83;;;;;;;10.56;100.00;97776.94;6211002;28;20753;-91
2023/09/16 04:02:39;;;;;;;8.47;6.57;;;;;;;11.80;100.00;97960.09;6225894;28;20740;-91
2023/09/16 04:05:41;;;;;;;7.47;6.70;;;;;;;10.65;100.00;97785.38;6221242;28;20240;-91
2023/09/16 04:08:43;;;;;;;7.43;6.73;;;;;;;11.02;100.00;97860.38;6209313;28;20254;-90
2023/09/16 04:11:45;;;;;;;9.83;6.80;;;;;;;10.63;100.00;97790.91;6208817;28;20228;-91
2023/09/16 04:14:47;;;;;;;5.87;5.33;;;;;;;10.14;100.00;97712.50;6244180;28;20227;-91
2023/09/16 04:17:51;;;;;;;7.43;6.10;;;;;;;11.78;100.00;97952.34;6258701;28;20225;-92
2023/09/16 04:20:55;;;;;;;7.27;6.17;;;;;;;11.76;100.00;97961.63;6208968;28;20259;-91
2023/09/16 04:23:57;;;;;;;7.53;6.83;;;;;;;11.01;100.00;97864.09;6241997;28;20263;-91
2023/09/16 04:26:59;;;;;;;6.90;6.20;;;;;;;10.59;100.00;97797.78;6258449;28;20231;-91
2023/09/16 04:30:03;;;;;;;6.50;5.90;;;;;;;11.00;100.00;97857.13;6225112;28;20235;-91
2023/09/16 04:33:07;;;;;;;6.90;6.20;;;;;;;10.12;100.00;97730.56;6244962;28;20224;-91
2023/09/16 04:36:10;;;;;;;6.43;5.83;;;;;;;11.40;100.00;97923.69;6227547;28;20278;-91
2023/09/16 04:39:14;;;;;;;6.97;6.27;;;;;;;11.55;100.00;97947.97;6227552;28;20223;-91
2023/09/16 04:42:16;;;;;;;6.63;6.03;;;;;;;11.69;100.00;97985.03;6227047;28;20385;-91
2023/09/16 04:45:19;;;;;;;6.80;6.20;;;;;;;11.37;100.00;97932.97;6214710;28;20234;-91
2023/09/16 04:48:22;;;;;;;7.03;6.33;;;;;;;11.02;100.00;97865.69;6241969;28;20523;-92
2023/09/16 04:51:25;;;;;;;7.23;6.53;;;;;;;10.23;100.00;97751.00;6225365;28;20601;-90
2023/09/16 04:54:28;;;;;;;7.80;6.40;;;;;;;11.32;100.00;97948.09;6245441;28;20230;-89
2023/09/16 04:57:30;;;;;;;7.13;6.27;;;;;;;11.04;100.00;97884.94;6207564;28;20702;-89
2023/09/16 05:00:34;;;;;;;7.33;6.63;;;;;;;10.78;100.00;97841.00;6210816;28;20293;-89
2023/09/16 05:03:37;;;;;;;7.27;6.47;;;;;;;11.40;100.00;97929.03;6210561;28;20227;-89
2023/09/16 05:06:40;;;;;;;6.83;6.20;;;;;;;10.50;100.00;97809.88;6223487;28;20236;-89
2023/09/16 05:09:42;;;;;;;9.23;6.13;;;;;;;10.31;100.00;97756.78;6224623;28;20253;-89
2023/09/16 05:12:44;;;;;;;7.80;6.23;;;;;;;11.33;100.00;97915.06;6244536;28;20246;-89
2023/09/16 05:15:48;;;;;;;7.43;6.17;;;;;;;11.61;100.00;97957.66;6223922;28;20227;-89
2023/09/16 05:18:50;;;;;;;7.77;6.97;;;;;;;11.05;100.00;97867.91;6226748;28;20232;-89
2023/09/16 05:21:53;;;;;;;7.27;6.57;;;;;;;11.87;100.00;97992.81;6227335;28;20242;-90
2023/09/16 05:24:56;;;;;;;7.00;6.30;;;;;;;11.07;100.00;97884.44;6210508;28;20326;-89
2023/09/16 05:27:58;;;;;;;7.20;6.53;;;;;;;11.45;100.00;97938.97;6225354;28;20232;-89
2023/09/16 05:31:02;;;;;;;7.10;6.40;;;;;;;10.30;100.00;97759.69;6225977;28;20325;-90
2023/09/16 05:34:07;;;;;;;7.43;6.73;;;;;;;11.33;100.00;97894.53;6238137;28;20693;-89
2023/09/16 05:37:09;;;;;;;7.00;6.30;;;;;;;11.05;100.00;97842.03;6245061;28;20258;-90
2023/09/16 05:40:12;;;;;;;6.87;6.27;;;;;;;12.00;100.00;98005.03;6211897;28;20239;-91
2023/09/16 05:43:14;;;;;;;7.37;6.33;;;;;;;12.02;100.00;98006.44;6227476;28;20724;-89
2023/09/16 05:46:16;;;;;;;7.97;7.17;;;;;;;12.09;100.00;98009.72;6261680;28;20297;-93
2023/09/16 05:49:19;;;;;;;8.00;7.23;;;;;;;12.13;100.00;98004.72;6213634;28;20246;-85
2023/09/16 05:52:21;;;;;;;8.17;7.33;;;;;;;12.06;100.00;97985.38;6238346;28;20709;-85
2023/09/16 05:55:24;;;;;;;8.20;7.40;;;;;;;11.44;100.00;97884.81;6206802;28;20231;-86
2023/09/16 05:58:28;;;;;;;8.93;8.13;;;;;;;11.77;100.00;97931.22;6227552;28;20246;-87
2023/09/16 06:01:39;;;;;;;8.57;7.67;;;;;;;12.16;100.00;97971.38;6216486;28;20232;-86
2023/09/16 06:04:49;;;;;;;8.20;7.33;;;;;;;12.43;100.00;98014.25;6223646;28;20224;-86
2023/09/16 06:07:57;;;;;;;9.23;8.33;;;;;;;11.00;100.00;97779.84;6230673;28;20220;-86
2023/09/16 06:11:06;;;;;;;7.83;7.03;;;;;;;12.41;100.00;97990.44;6225606;28;20228;-86
2023/09/16 06:14:14;;;;;;;9.43;7.80;;;;;;;11.37;100.00;97817.47;6254098;28;20239;-86
2023/09/16 06:17:19;;;;;;;7.87;7.07;;;;;;;12.64;100.00;98008.13;6255277;28;20334;-88
2023/09/16 06:20:25;;;;;;;7.70;7.00;;;;;;;12.48;100.00;97976.91;6275203;28;20211;-87
2023/09/16 06:23:36;;;;;;;7.97;7.17;;;;;;;12.40;100.00;97944.19;6242705;28;20234;-87
2023/09/16 06:26:50;;;;;;;8.87;8.00;;;;;;;12.89;100.00;97997.75;6260882;28;20243;-87
2023/09/16 06:29:53;;;;;;;11.90;8.93;;;;;;;12.70;100.00;97960.88;6241969;28;20234;-87
2023/09/16 06:32:57;;;;;;;8.73;7.83;;;;;;;13.10;100.00;97996.16;6256214;28;20239;-87
2023/09/16 06:35:59;;;;;;;8.87;7.97;;;;;;;12.51;100.00;97882.88;6258358;28;20235;-86
2023/09/16 06:39:05;;;;;;;10.97;8.90;;;;;;;13.50;100.00;97986.16;6237620;28;20645;-87
2023/09/16 06:42:07;;;;;;;10.20;9.20;;;;;;;13.30;100.00;97941.25;6255800;28;20239;-87
2023/09/16 06:45:09;;;;;;;10.27;9.17;;;;;;;13.04;100.00;97870.63;6236182;28;20203;-86
2023/09/16 06:48:11;;;;;;;9.47;8.57;;;;;;;13.73;100.00;97958.25;6271258;28;20218;-87
2023/09/16 06:51:14;;;;;;;11.77;8.90;;;;;;;13.36;100.00;97876.84;6252137;28;20246;-87
2023/09/16 06:54:16;;;;;;;9.80;8.17;;;;;;;13.62;100.00;97909.19;6250821;28;20222;-86
2023/09/16 06:57:18;;;;;;;9.23;8.00;;;;;;;13.97;100.00;97940.75;6254003;28;20274;-87
2023/09/16 07:00:20;;;;;;;8.17;7.37;;;;;;;14.39;100.00;97983.66;6245555;28;20255;-86
2023/09/16 07:03:22;;;;;;;9.53;7.73;;;;;;;14.20;100.00;97935.03;6248869;28;20254;-86
2023/09/16 07:06:25;;;;;;;7.63;6.93;;;;;;;14.51;100.00;97954.00;6227513;28;20246;-87
2023/09/16 07:09:27;;;;;;;7.60;6.90;;;;;;;14.85;100.00;97985.81;6232028;28;20230;-86
2023/09/16 07:12:29;;;;;;;7.43;6.73;;;;;;;15.15;100.00;97985.91;6212294;28;20315;-87
2023/09/16 07:15:31;;;;;;;7.43;6.33;;;;;;;15.25;100.00;97981.66;6222360;28;20228;-86
2023/09/16 07:18:35;;;;;;;7.43;6.13;;;;;;;13.91;100.00;97767.72;6206510;28;20322;-87
2023/09/16 07:21:37;;;;;;;6.10;5.50;;;;;;;15.44;100.00;97988.94;6226068;28;20232;-84
2023/09/16 07:24:43;;;;;;;5.93;5.43;;;;;;;15.58;100.00;97983.06;6219525;28;20242;-86
2023/09/16 07:27:46;;;;;;;5.67;5.17;;;;;;;15.46;100.00;97940.34;6204631;28;20239;-86
2023/09/16 07:30:48;;;;;;;5.57;4.97;;;;;;;15.17;100.00;97865.72;6222559;28;20236;-87
2023/09/16 07:33:51;;;;;;;5.90;5.30;;;;;;;16.05;100.00;97923.72;6223110;28;20235;-87
2023/09/16 07:36:54;;;;;;;5.30;4.50;;;;;;;16.37;100.00;97925.28;6223433;28;20230;-87
2023/09/16 07:39:57;;;;;;;5.40;4.40;;;;;;;16.47;100.00;97914.50;6221464;28;20794;-87
2023/09/16 07:42:59;;;;;;;6.33;4.37;;;;;;;17.04;96.25;97942.78;6206983;28;20655;-88
2023/09/16 07:46:01;;;;;;;3.90;3.60;;;;;;;17.39;97.63;97968.75;6220526;28;20230;-86
2023/09/16 07:49:03;;;;;;;5.70;3.90;;;;;;;17.40;97.98;97980.31;6223432;28;20231;-86
2023/09/16 07:52:06;;;;;;;4.13;3.60;;;;;;;17.10;98.48;97936.31;6222390;28;20713;-86
2023/09/16 07:55:08;;;;;;;4.83;3.90;;;;;;;17.48;96.07;97982.41;6206746;28;20235;-87
2023/09/16 07:58:11;;;;;;;3.83;3.53;;;;;;;17.64;95.80;97980.44;6203766;28;20234;-88
2023/09/16 08:01:13;;;;;;;4.50;3.27;;;;;;;17.81;95.61;97988.97;6219717;28;20634;-87
2023/09/16 08:04:16;;;;;;;3.57;3.27;;;;;;;17.19;92.46;97826.97;6255076;28;20326;-87
2023/09/16 08:07:18;;;;;;;5.40;3.40;;;;;;;17.94;91.93;97931.72;6254783;28;20232;-86
2023/09/16 08:10:21;;;;;;;4.27;3.87;;;;;;;17.07;86.05;97763.81;6221018;28;20235;-86
2023/09/16 08:13:23;;;;;;;3.50;3.20;;;;;;;17.83;85.85;97859.31;6224603;28;20239;-87
2023/09/16 08:16:26;;;;;;;4.07;3.40;;;;;;;18.69;87.98;97990.63;6227739;28;20246;-88
2023/09/16 08:19:30;;;;;;;3.47;3.17;;;;;;;18.32;84.41;97891.41;6196619;28;20689;-89
2023/09/16 08:22:33;;;;;;;3.60;3.17;;;;;;;17.76;87.67;97790.38;6217903;28;20236;-91
2023/09/16 08:25:35;;;;;;;3.03;2.73;;;;;;;18.56;85.94;97915.69;6235699;28;20242;-89
2023/09/16 08:28:37;;;;;;;4.27;3.50;;;;;;;19.06;86.43;97983.69;6235163;28;20234;-88
2023/09/16 08:31:39;;;;;;;2.97;2.70;;;;;;;19.02;85.71;97969.19;6252660;28;20288;-86
2023/09/16 08:34:41;;;;;;;3.20;2.97;;;;;;;18.88;85.33;97935.88;6225780;28;20223;-86
2023/09/16 08:37:44;;;;;;;4.37;2.90;;;;;;;19.28;84.45;97975.06;6227096;28;20228;-88
2023/09/16 08:41:02;;;;;;;3.03;2.80;;;;;;;19.23;83.55;97967.81;6206948;28;20231;-87
2023/09/16 08:44:08;;;;;;;4.67;2.93;;;;;;;19.27;85.50;97949.94;6208066;28;20250;-86
2023/09/16 08:47:15;;;;;;;2.73;2.53;;;;;;;19.40;79.59;97913.25;6244499;28;20242;-88
2023/09/16 08:50:21;;;;;;;4.63;2.73;;;;;;;19.48;83.16;97917.22;6208669;28;20235;-88
2023/09/16 08:53:27;;;;;;;4.03;2.70;;;;;;;19.62;81.30;97933.53;6225526;28;20231;-86
2023/09/16 08:56:30;;;;;;;2.57;2.37;;;;;;;19.78;79.38;97927.56;6258936;28;20243;-86
2023/09/16 08:59:36;;;;;;;4.20;3.00;;;;;;;20.29;77.75;97964.56;6243194;28;20231;-86
2023/09/16 09:02:39;;;;;;;4.13;2.70;;;;;;;20.44;76.86;97960.78;6224653;28;20242;-86
2023/09/16 09:05:44;;;;;;;3.20;2.60;;;;;;;20.50;76.80;97969.66;6231960;28;20291;-86
2023/09/16 09:08:47;;;;;;;4.23;2.63;;;;;;;20.53;76.81;97944.69;6240491;28;20226;-89
2023/09/16 09:11:51;;;;;;;4.63;2.60;;;;;;;20.37;72.06;97919.78;6226707;28;20718;-84
2023/09/16 09:14:55;;;;;;;4.03;2.50;;;;;;;20.77;73.74;97966.94;6208071;28;20227;-90
2023/09/16 09:17:58;;;;;;;3.17;2.60;;;;;;;20.98;72.92;97969.25;6207513;28;20238;-86
2023/09/16 09:21:01;;;;;;;2.80;2.57;;;;;;;20.95;73.63;97949.00;6226968;28;20231;-87
2023/09/16 09:24:04;;;;;;;4.60;2.73;;;;;;;20.89;72.39;97944.78;6220454;28;20647;-87
2023/09/16 09:27:06;;;;;;;3.17;2.70;;;;;;;21.11;71.53;97960.31;6251946;28;20730;-87
2023/09/16 09:30:09;;;;;;;2.93;2.53;;;;;;;21.06;75.14;97957.72;6207998;28;20208;-89
2023/09/16 09:33:20;;;;;;;4.87;2.60;;;;;;;20.80;71.39;97890.53;6242325;28;20681;-90
2023/09/16 09:36:24;;;;;;;3.17;2.47;;;;;;;20.97;72.06;97900.72;6201485;28;20240;-89
2023/09/16 09:39:26;;;;;;;4.37;2.30;;;;;;;21.13;71.64;97937.25;6243029;28;20223;-89
2023/09/16 09:42:29;;;;;;;2.63;2.40;;;;;;;21.17;67.71;97912.22;6208554;28;20602;-90
2023/09/16 09:45:37;;;;;;;4.03;2.30;;;;;;;21.01;67.12;97871.13;6241836;28;20223;-89
2023/09/16 09:48:40;;;;;;;3.93;2.37;;;;;;;21.35;64.55;97882.31;6223478;28;20578;-89
2023/09/16 09:51:43;;;;;;;2.40;2.20;;;;;;;21.93;63.12;97942.22;6232150;28;20610;-93
2023/09/16 09:54:45;;;;;;;8.40;2.60;;;;;;;21.59;67.07;97913.75;6224309;28;20225;-93
2023/09/16 09:57:50;;;;;;;3.53;2.57;;;;;;;21.94;70.92;97963.59;6229440;28;20732;-94
2023/09/16 10:00:53;;;;;;;3.10;2.20;;;;;;;22.00;66.60;97948.00;6259554;28;20732;-90
2023/09/16 10:03:55;;;;;;;3.27;2.03;;;;;;;21.87;66.06;97925.25;6210620;28;20219;-90
2023/09/16 10:07:00;;;;;;;2.03;1.93;;;;;;;22.26;64.43;97946.25;6209900;28;20319;-90
2023/09/16 10:10:02;;;;;;;2.60;1.70;;;;;;;22.13;60.11;97876.59;6224983;28;20273;-90
2023/09/16 10:13:05;;;;;;;3.60;2.00;;;;;;;21.72;62.62;97828.78;6209709;28;20243;-93
2023/09/16 10:16:09;;;;;;;3.15;1.80;;;;;;;22.28;60.38;97892.47;6221576;28;20736;-90
2023/09/16 10:19:12;;;;;;;4.70;1.95;;;;;;;22.69;58.89;97942.94;6216222;28;20603;-88
2023/09/16 10:22:16;;;;;;;3.00;2.67;;;;;;;22.56;62.85;97922.94;6242352;28;20238;-88
2023/09/16 10:25:18;;;;;;;3.42;2.00;;;;;;;21.36;59.48;97755.72;6219363;28;20223;-89
2023/09/16 10:28:22;;;;;;;3.10;1.98;;;;;;;22.96;56.91;97933.00;6236843;28;20598;-88
2023/09/16 10:31:27;;;;;;;3.00;1.83;;;;;;;22.60;58.59;97901.38;6223033;28;20321;-89
2023/09/16 10:34:31;;;;;;;7.85;2.25;;;;;;;22.88;57.18;97905.47;6223977;28;20231;-89
2023/09/16 10:37:36;;;;;;;3.42;2.00;;;;;;;22.75;62.99;97889.25;6224710;28;20244;-91
2023/09/16 10:40:39;;;;;;;2.65;1.98;;;;;;;22.63;59.58;97857.31;6208777;28;20238;-89
2023/09/16 10:43:43;;;;;;;2.28;2.08;;;;;;;23.09;59.11;97937.47;6226288;28;20602;-88
2023/09/16 10:46:47;;;;;;;3.80;2.13;;;;;;;22.89;57.55;97904.34;6223840;28;20663;-91
2023/09/16 10:49:49;;;;;;;3.05;2.20;;;;;;;23.26;57.34;97928.56;6211051;28;20231;-85
2023/09/16 10:52:55;;;;;;;2.72;2.10;;;;;;;23.46;56.66;97921.69;6256584;28;20230;-87
2023/09/16 10:56:24;;;;;;;2.00;1.80;;;;;;;23.32;57.17;97936.22;6205701;28;20234;-87
2023/09/16 10:59:31;;;;;;;2.10;1.90;;;;;;;23.21;56.16;97891.47;6224467;28;20700;-86
2023/09/16 11:02:52;;;;;;;2.90;2.22;;;;;;;23.55;55.63;97927.94;6254136;28;20250;-88
2023/09/16 11:05:57;;;;;;;2.50;2.20;;;;;;;23.42;57.26;97888.91;6209164;28;20235;-85
2023/09/16 11:09:00;;;;;;;1.95;1.77;;;;;;;23.50;55.32;97928.91;6213466;28;20590;-90
2023/09/16 11:12:03;;;;;;;2.85;1.90;;;;;;;22.83;56.75;97823.31;6209668;28;20306;-86
2023/09/16 11:15:07;;;;;;;2.75;2.00;;;;;;;22.89;55.59;97830.19;6225054;28;20219;-87
2023/09/16 11:18:10;;;;;;;3.63;1.83;;;;;;;23.29;55.25;97885.22;6237026;28;20309;-87
2023/09/16 11:21:12;;;;;;;3.38;1.80;;;;;;;23.09;54.24;97831.50;6218830;28;20228;-88
2023/09/16 11:24:14;;;;;;;2.00;1.90;;;;;;;23.23;54.51;97875.63;6244237;28;20211;-88
2023/09/16 11:27:19;;;;;;;1.83;1.70;;;;;;;23.03;55.41;97838.22;6244193;28;20251;-85
2023/09/16 11:30:22;;;;;;;3.25;1.90;;;;;;;23.43;55.99;97874.97;6264530;28;20240;-86
2023/09/16 11:33:27;;;;;;;3.55;1.73;;;;;;;22.67;55.20;97763.22;6253358;28;20207;-88
2023/09/16 11:36:34;;;;;;;2.00;1.67;;;;;;;23.44;53.39;97843.94;6253351;28;20212;-87
2023/09/16 11:39:40;;;;;;;2.10;1.98;;;;;;;23.00;53.28;97776.34;6252231;28;20212;-88
2023/09/16 11:42:43;;;;;;;2.80;2.00;;;;;;;23.89;53.01;97884.41;6276537;28;20231;-87
2023/09/16 11:45:45;;;;;;;2.50;1.77;;;;;;;23.93;52.59;97889.97;6271896;28;20235;-88
2023/09/16 11:48:53;;;;;;;4.20;1.70;;;;;;;23.76;51.95;97860.09;6253297;28;20225;-88
2023/09/16 11:51:56;;;;;;;1.98;1.55;;;;;;;23.60;53.18;97844.25;6256097;28;20223;-87
2023/09/16 11:54:59;;;;;;;5.43;1.77;;;;;;;23.62;54.25;97857.53;6256921;28;20219;-87
2023/09/16 11:58:02;;;;;;;2.35;1.77;;;;;;;23.14;52.27;97761.47;6235239;28;20243;-87
2023/09/16 12:01:05;;;;;;;1.88;1.42;;;;;;;23.39;52.68;97802.53;6231880;28;20250;-87
2023/09/16 12:04:10;;;;;;;1.95;1.73;;;;;;;23.58;51.23;97816.56;6241445;28;20581;-86
2023/09/16 12:07:13;;;;;;;3.28;1.90;;;;;;;22.50;52.62;97704.25;6259856;28;20728;-87
2023/09/16 12:10:16;;;;;;;2.30;1.88;;;;;;;22.56;52.56;97705.72;6262243;28;20235;-87
2023/09/16 12:13:29;;;;;;;4.10;2.08;;;;;;;23.47;52.44;97855.31;6273830;28;20220;-87
2023/09/16 12:16:31;;;;;;;6.00;2.17;;;;;;;23.35;54.40;97820.59;6225114;28;20246;-86
2023/09/16 12:19:34;;;;;;;2.15;1.90;;;;;;;23.90;53.23;97877.81;6233737;28;20222;-86
2023/09/16 12:22:36;;;;;;;2.05;1.83;;;;;;;23.74;53.54;97846.78;6220311;28;20720;-86
2023/09/16 12:25:40;;;;;;;1.90;1.80;;;;;;;24.05;51.33;97864.81;6234595;28;20231;-87
2023/09/16 12:28:42;;;;;;;2.60;1.80;;;;;;;24.02;53.11;97871.69;6256175;28;20234;-86
2023/09/16 12:31:45;;;;;;;3.08;2.05;;;;;;;23.80;52.66;97837.38;6244206;28;20637;-86
2023/09/16 12:35:11;;;;;;;2.67;2.15;;;;;;;23.86;52.97;97848.88;6266496;28;20243;-88
2023/09/16 12:38:17;;;;;;;2.10;1.80;;;;;;;23.80;51.17;97809.38;6233926;28;20307;-86
2023/09/16 12:41:20;;;;;;;2.20;2.00;;;;;;;24.14;53.06;97857.44;6243014;28;20298;-86
2023/09/16 12:44:22;;;;;;;2.15;1.75;;;;;;;23.92;52.04;97826.59;6246222;28;20330;-86
2023/09/16 12:47:26;;;;;;;2.10;1.90;;;;;;;23.63;51.74;97780.25;6247609;28;20635;-86
2023/09/16 12:50:29;;;;;;;4.40;2.10;;;;;;;24.10;53.11;97859.19;6212726;28;20259;-85
2023/09/16 12:53:31;;;;;;;2.35;2.17;;;;;;;24.15;51.73;97850.84;6234905;28;20246;-85
2023/09/16 12:56:36;;;;;;;2.88;1.98;;;;;;;23.77;51.62;97810.78;6236348;28;20713;-86
2023/09/16 12:59:44;;;;;;;2.92;1.95;;;;;;;23.76;52.79;97809.22;6243991;28;20834;-86
2023/09/16 13:02:47;;;;;;;2.60;2.08;;;;;;;24.17;50.71;97868.44;6229565;28;20229;-86
2023/09/16 13:05:51;;;;;;;2.60;2.40;;;;;;;23.67;50.35;97802.97;6227854;28;20637;-85
2023/09/16 13:08:54;;;;;;;3.55;2.10;;;;;;;23.95;52.82;97857.81;6227999;28;20777;-86
2023/09/16 13:11:58;;;;;;;2.10;1.98;;;;;;;23.86;53.16;97857.03;6243737;28;20227;-86
2023/09/16 13:15:00;;;;;;;2.10;1.90;;;;;;;23.64;51.28;97809.06;6226479;28;20373;-86
2023/09/16 13:18:04;;;;;;;1.83;1.73;;;;;;;23.71;52.30;97838.50;6210210;28;20238;-86
2023/09/16 13:21:06;;;;;;;3.72;2.20;;;;;;;23.98;49.54;97846.25;6224713;28;20431;-86
2023/09/16 13:24:09;;;;;;;1.80;1.70;;;;;;;23.90;50.62;97857.97;6207215;28;20419;-86
2023/09/16 13:27:18;;;;;;;2.13;1.92;;;;;;;23.58;50.68;97816.56;6225952;28;20235;-86
2023/09/16 13:30:26;;;;;;;2.20;1.70;;;;;;;23.36;51.78;97776.78;6223011;28;20250;-86
2023/09/16 13:34:00;;;;;;;1.90;1.80;;;;;;;23.80;51.13;97840.09;6206234;28;20227;-87
2023/09/16 13:37:03;;;;;;;2.40;2.08;;;;;;;23.50;52.38;97798.38;6238198;28;20231;-86
2023/09/16 13:40:09;;;;;;;1.80;1.70;;;;;;;23.40;52.14;97793.28;6221677;28;20243;-86
2023/09/16 13:43:12;;;;;;;1.83;1.73;;;;;;;23.54;53.20;97820.25;6237656;28;20315;-86
2023/09/16 13:46:16;;;;;;;3.15;2.08;;;;;;;23.52;53.76;97822.50;6225152;28;20235;-86
2023/09/16 13:49:19;;;;;;;2.80;2.00;;;;;;;23.63;51.63;97831.91;6241691;28;20227;-86
2023/09/16 13:52:22;;;;;;;5.63;1.90;;;;;;;23.34;52.80;97797.25;6209526;28;20243;-86
2023/09/16 13:55:25;;;;;;;2.63;1.80;;;;;;;23.42;53.86;97823.66;6242225;28;20235;-86
2023/09/16 13:58:30;;;;;;;2.30;2.10;;;;;;;23.30;53.08;97824.31;6223891;28;20725;-86
2023/09/16 14:01:33;;;;;;;1.80;1.70;;;;;;;23.58;52.31;97837.53;6257892;28;20218;-86
2023/09/16 14:04:35;;;;;;;3.03;1.85;;;;;;;23.54;53.31;97825.69;6249971;28;20862;-86
2023/09/16 14:07:38;;;;;;;2.10;1.80;;;;;;;23.44;53.84;97796.91;6207270;28;20242;-87
2023/09/16 14:10:41;;;;;;;2.38;2.03;;;;;;;22.95;54.03;97754.75;6237286;28;20709;-86
2023/09/16 14:13:44;;;;;;;2.08;1.88;;;;;;;23.13;52.44;97778.09;6208908;28;20238;-86
2023/09/16 14:16:47;;;;;;;2.67;2.03;;;;;;;23.27;54.07;97797.75;6223884;28;20318;-85
2023/09/16 14:19:50;;;;;;;2.30;2.00;;;;;;;23.33;54.07;97811.97;6246455;28;20326;-94